createdAt,value
2022-08-14T00:01:09.997Z,99761.28
2022-08-14T00:03:38.557Z,99761.13
2022-08-14T00:06:14.079Z,99753.03
2022-08-14T00:08:52.576Z,99754.88
2022-08-14T00:11:19.740Z,99747.25
2022-08-14T00:13:52.451Z,99745.75
2022-08-14T00:16:41.107Z,99751.59
2022-08-14T00:19:21.176Z,99747.19
2022-08-14T00:21:50.795Z,99742.81
2022-08-14T00:24:28.636Z,99743.84
2022-08-14T00:27:02.165Z,99729.94
2022-08-14T00:29:39.857Z,99733.47
2022-08-14T00:32:50.099Z,99729.44
2022-08-14T00:34:53.693Z,99730.38
2022-08-14T00:37:20.965Z,99723.94
2022-08-14T00:39:47.516Z,99728.03
2022-08-14T00:42:21.355Z,99724.00
2022-08-14T00:45:09.930Z,99721.91
2022-08-14T00:47:43.232Z,99718.44
2022-08-14T00:50:16.707Z,99724.25
2022-08-14T00:52:50.957Z,99721.28
2022-08-14T00:55:19.940Z,99726.84
2022-08-14T00:58:07.543Z,99713.19
2022-08-14T01:00:37.354Z,99716.28
2022-08-14T01:03:09.995Z,99715.63
2022-08-14T01:05:50.953Z,99713.94
2022-08-14T01:08:52.301Z,99718.31
2022-08-14T01:11:07.868Z,99722.59
2022-08-14T01:13:42.610Z,99718.47
2022-08-14T01:16:15.112Z,99715.97
2022-08-14T01:19:01.373Z,99714.81
2022-08-14T01:21:34.881Z,99710.06
2022-08-14T01:24:24.734Z,99708.78
2022-08-14T01:27:00.131Z,99704.81
2022-08-14T01:29:59.094Z,99711.44
2022-08-14T01:32:22.888Z,99703.00
2022-08-14T01:35:17.301Z,99705.69
2022-08-14T01:37:44.510Z,99707.19
2022-08-14T01:40:15.528Z,99710.75
2022-08-14T01:42:46.881Z,99712.78
2022-08-14T01:45:17.921Z,99709.88
2022-08-14T01:47:52.582Z,99709.53
2022-08-14T01:50:30.658Z,99722.19
2022-08-14T01:53:01.238Z,99717.16
2022-08-14T01:55:31.907Z,99723.25
2022-08-14T01:58:18.524Z,99719.31
2022-08-14T02:00:47.851Z,99715.19
2022-08-14T02:03:16.114Z,99719.38
2022-08-14T02:05:43.555Z,99722.06
2022-08-14T02:08:10.662Z,99721.53
2022-08-14T02:10:46.603Z,99719.50
2022-08-14T02:13:15.984Z,99717.25
2022-08-14T02:15:43.694Z,99718.66
2022-08-14T02:18:10.559Z,99720.75
2022-08-14T02:20:39.991Z,99709.75
2022-08-14T02:23:08.186Z,99717.16
2022-08-14T02:25:35.506Z,99711.00
2022-08-14T02:28:25.075Z,99705.59
2022-08-14T02:30:48.674Z,99702.03
2022-08-14T02:33:19.573Z,99691.13
2022-08-14T02:35:53.359Z,99691.47
2022-08-14T02:38:30.005Z,99680.06
2022-08-14T02:41:01.064Z,99682.78
2022-08-14T02:43:36.584Z,99680.63
2022-08-14T02:46:04.185Z,99677.53
2022-08-14T02:49:04.970Z,99677.38
2022-08-14T02:51:23.525Z,99675.81
2022-08-14T02:53:51.857Z,99678.50
2022-08-14T02:56:30.224Z,99675.91
2022-08-14T02:59:08.480Z,99680.06
2022-08-14T03:01:43.468Z,99670.91
2022-08-14T03:04:20.176Z,99683.19
2022-08-14T03:06:58.043Z,99676.78
2022-08-14T03:10:26.437Z,99675.53
2022-08-14T03:12:31.500Z,99677.91
2022-08-14T03:15:03.207Z,99669.88
2022-08-14T03:17:32.109Z,99659.47
2022-08-14T03:20:11.105Z,99664.84
2022-08-14T03:22:41.846Z,99658.44
2022-08-14T03:25:10.629Z,99650.56
2022-08-14T03:27:48.556Z,99653.91
2022-08-14T03:30:38.906Z,99652.88
2022-08-14T03:33:08.404Z,99647.69
2022-08-14T03:35:39.850Z,99657.44
2022-08-14T03:39:11.640Z,99650.19
2022-08-14T03:40:56.774Z,99651.81
2022-08-14T03:43:25.445Z,99651.66
2022-08-14T03:45:55.435Z,99640.09
2022-08-14T03:48:30.145Z,99648.91
2022-08-14T03:50:58.049Z,99658.44
2022-08-14T03:53:26.283Z,99651.16
2022-08-14T03:55:56.108Z,99651.97
2022-08-14T03:58:36.731Z,99649.25
2022-08-14T04:01:06.466Z,99657.56
2022-08-14T04:03:37.385Z,99642.16
2022-08-14T04:06:04.995Z,99651.00
2022-08-14T04:08:36.982Z,99649.50
2022-08-14T04:11:08.011Z,99644.75
2022-08-14T04:13:39.586Z,99649.59
2022-08-14T04:16:12.647Z,99652.66
2022-08-14T04:18:42.527Z,99658.81
2022-08-14T04:21:10.492Z,99670.38
2022-08-14T04:23:39.788Z,99663.75
2022-08-14T04:26:14.232Z,99666.78
2022-08-14T04:29:07.590Z,99665.00
2022-08-14T04:33:10.489Z,99670.69
2022-08-14T04:34:24.065Z,99665.78
2022-08-14T04:37:12.807Z,99669.91
2022-08-14T04:39:58.839Z,99672.47
2022-08-14T04:42:47.272Z,99679.16
2022-08-14T04:45:19.743Z,99686.34
2022-08-14T04:48:05.557Z,99683.88
2022-08-14T04:50:43.862Z,99683.94
2022-08-14T04:53:13.880Z,99680.84
2022-08-14T04:55:42.895Z,99684.16
2022-08-14T04:58:21.951Z,99682.06
2022-08-14T05:00:58.097Z,99681.72
2022-08-14T05:03:27.629Z,99679.91
2022-08-14T05:05:58.117Z,99675.53
2022-08-14T05:08:32.155Z,99662.66
2022-08-14T05:11:13.470Z,99670.31
2022-08-14T05:14:33.065Z,99673.59
2022-08-14T05:16:31.639Z,99677.81
2022-08-14T05:19:17.602Z,99667.13
2022-08-14T05:22:00.580Z,99678.34
2022-08-14T05:24:31.668Z,99679.41
2022-08-14T05:26:59.341Z,99673.78
2022-08-14T05:29:26.387Z,99667.13
2022-08-14T05:31:57.319Z,99673.84
2022-08-14T05:34:32.052Z,99676.94
2022-08-14T05:37:03.224Z,99674.34
2022-08-14T05:39:31.136Z,99674.25
2022-08-14T05:41:58.401Z,99673.91
2022-08-14T05:44:29.589Z,99674.06
2022-08-14T05:46:57.370Z,99680.66
2022-08-14T05:49:32.681Z,99680.97
2022-08-14T05:52:03.895Z,99670.63
2022-08-14T05:54:36.539Z,99683.34
2022-08-14T05:57:04.965Z,99671.81
2022-08-14T05:59:38.657Z,99667.78
2022-08-14T06:02:07.795Z,99665.16
2022-08-14T06:04:36.906Z,99673.28
2022-08-14T06:07:04.328Z,99665.47
2022-08-14T06:09:35.524Z,99658.84
2022-08-14T06:12:10.601Z,99667.50
2022-08-14T06:14:38.889Z,99681.13
2022-08-14T06:17:05.982Z,99685.22
2022-08-14T06:19:33.096Z,99683.47
2022-08-14T06:21:59.941Z,99676.66
2022-08-14T06:24:27.604Z,99669.97
2022-08-14T06:27:04.517Z,99670.56
2022-08-14T06:29:34.959Z,99678.31
2022-08-14T06:32:36.547Z,99675.03
2022-08-14T06:35:10.769Z,99674.16
2022-08-14T06:37:46.895Z,99672.28
2022-08-14T06:40:27.183Z,99670.63
2022-08-14T06:43:00.549Z,99668.94
2022-08-14T06:45:31.387Z,99662.94
2022-08-14T06:47:58.792Z,99664.75
2022-08-14T06:50:28.713Z,99662.00
2022-08-14T06:52:58.535Z,99676.69
2022-08-14T06:55:28.106Z,99682.22
2022-08-14T06:57:56.519Z,99697.22
2022-08-14T07:00:30.972Z,99678.06
2022-08-14T07:03:17.170Z,99682.22
2022-08-14T07:05:55.650Z,99677.25
2022-08-14T07:08:31.095Z,99679.88
2022-08-14T07:11:04.232Z,99681.19
2022-08-14T07:13:31.183Z,99679.91
2022-08-14T07:15:58.929Z,99694.84
2022-08-14T07:18:29.208Z,99696.88
2022-08-14T07:20:57.462Z,99693.50
2022-08-14T07:23:25.811Z,99698.97
2022-08-14T07:25:55.355Z,99694.78
2022-08-14T07:28:43.361Z,99695.38
2022-08-14T07:31:12.283Z,99693.75
2022-08-14T07:33:46.666Z,99691.06
2022-08-14T07:36:27.274Z,99698.19
2022-08-14T07:39:00.942Z,99707.28
2022-08-14T07:41:31.282Z,99706.03
2022-08-14T07:44:22.425Z,99703.91
2022-08-14T07:46:47.936Z,99696.25
2022-08-14T07:49:17.921Z,99695.75
2022-08-14T07:51:45.323Z,99696.78
2022-08-14T07:54:12.388Z,99683.66
2022-08-14T07:56:47.510Z,99683.91
2022-08-14T07:59:16.940Z,99678.34
2022-08-14T08:01:51.171Z,99673.13
2022-08-14T08:04:25.196Z,99672.88
2022-08-14T08:06:53.758Z,99672.66
2022-08-14T08:09:32.097Z,99671.91
2022-08-14T08:12:05.062Z,99666.69
2022-08-14T08:14:55.538Z,99668.69
2022-08-14T08:17:25.616Z,99668.66
2022-08-14T08:19:52.392Z,99672.91
2022-08-14T08:22:21.280Z,99671.31
2022-08-14T08:24:50.817Z,99672.13
2022-08-14T08:27:19.930Z,99682.16
2022-08-14T08:29:50.786Z,99668.28
2022-08-14T08:32:18.507Z,99667.53
2022-08-14T08:34:46.364Z,99662.91
2022-08-14T08:37:14.751Z,99662.13
2022-08-14T08:40:03.305Z,99664.03
2022-08-14T08:42:38.250Z,99657.72
2022-08-14T08:45:06.243Z,99665.25
2022-08-14T08:47:40.409Z,99653.84
2022-08-14T08:50:23.237Z,99656.06
2022-08-14T08:53:02.049Z,99657.63
2022-08-14T08:55:31.825Z,99652.41
2022-08-14T08:58:05.441Z,99650.97
2022-08-14T09:00:40.986Z,99650.81
2022-08-14T09:03:12.307Z,99653.91
2022-08-14T09:06:54.022Z,99658.34
2022-08-14T09:08:55.728Z,99654.78
2022-08-14T09:11:24.578Z,99660.34
2022-08-14T09:13:52.645Z,99658.97
2022-08-14T09:16:25.867Z,99662.78
2022-08-14T09:18:53.932Z,99660.16
2022-08-14T09:21:24.047Z,99648.53
2022-08-14T09:24:29.325Z,99653.78
2022-08-14T09:26:42.395Z,99654.19
2022-08-14T09:29:11.471Z,99648.19
2022-08-14T09:31:53.462Z,99644.09
2022-08-14T09:34:27.961Z,99653.91
2022-08-14T09:37:27.377Z,99656.13
2022-08-14T09:40:20.939Z,99650.38
2022-08-14T09:43:05.414Z,99646.53
2022-08-14T09:45:40.280Z,99636.97
2022-08-14T09:48:29.837Z,99637.97
2022-08-14T09:54:17.921Z,99638.78
2022-08-14T09:56:45.855Z,99629.13
2022-08-14T09:59:16.167Z,99630.28
2022-08-14T10:01:52.769Z,99633.66
2022-08-14T10:04:33.745Z,99632.03
2022-08-14T10:07:08.422Z,99633.56
2022-08-14T10:10:00.023Z,99624.59
2022-08-14T10:12:53.163Z,99617.13
2022-08-14T10:15:25.951Z,99620.13
2022-08-14T10:18:17.326Z,99612.78
2022-08-14T10:21:01.038Z,99619.59
2022-08-14T10:23:34.954Z,99609.50
2022-08-14T10:26:07.240Z,99610.88
2022-08-14T10:29:14.196Z,99619.34
2022-08-14T10:31:40.187Z,99604.03
2022-08-14T10:34:16.263Z,99608.78
2022-08-14T10:36:48.094Z,99610.22
2022-08-14T10:39:22.067Z,99611.06
2022-08-14T10:41:53.786Z,99610.25
2022-08-14T10:44:29.664Z,99618.94
2022-08-14T10:47:41.474Z,99612.88
2022-08-14T10:50:00.123Z,99603.56
2022-08-14T10:52:33.891Z,99606.59
2022-08-14T10:55:15.467Z,99606.91
2022-08-14T10:57:57.495Z,99602.03
2022-08-14T11:00:35.572Z,99605.84
2022-08-14T11:03:15.741Z,99606.13
2022-08-14T11:05:55.727Z,99592.22
2022-08-14T11:08:35.445Z,99597.41
2022-08-14T11:11:05.621Z,99589.75
2022-08-14T11:13:34.932Z,99595.75
2022-08-14T11:16:02.477Z,99582.59
2022-08-14T11:18:40.197Z,99582.91
2022-08-14T11:21:08.428Z,99579.66
2022-08-14T11:23:39.882Z,99588.63
2022-08-14T11:26:10.805Z,99587.13
2022-08-14T11:28:48.144Z,99587.09
2022-08-14T11:31:22.107Z,99592.34
2022-08-14T11:33:58.192Z,99585.41
2022-08-14T11:36:35.444Z,99578.59
2022-08-14T11:39:34.495Z,99575.00
2022-08-14T11:42:55.463Z,99581.84
2022-08-14T11:45:11.148Z,99581.63
2022-08-14T11:48:12.816Z,99582.44
2022-08-14T11:50:37.630Z,99589.88
2022-08-14T11:53:20.207Z,99592.28
2022-08-14T11:55:46.955Z,99589.53
2022-08-14T11:58:23.812Z,99590.91
2022-08-14T12:00:53.881Z,99589.28
2022-08-14T12:03:37.356Z,99587.69
2022-08-14T12:06:27.851Z,99579.50
2022-08-14T12:08:56.874Z,99578.38
2022-08-14T12:11:44.105Z,99571.81
2022-08-14T12:14:30.798Z,99570.69
2022-08-14T12:17:11.751Z,99571.31
2022-08-14T12:19:51.555Z,99566.63
2022-08-14T12:22:33.953Z,99563.09
2022-08-14T12:25:01.789Z,99562.19
2022-08-14T12:27:59.226Z,99572.38
2022-08-14T12:30:43.052Z,99567.41
2022-08-14T12:33:35.331Z,99558.84
2022-08-14T12:36:07.968Z,99566.38
2022-08-14T12:38:43.712Z,99565.91
2022-08-14T12:41:22.155Z,99556.28
2022-08-14T12:44:01.905Z,99549.31
2022-08-14T12:46:43.711Z,99550.69
2022-08-14T12:49:16.419Z,99552.19
2022-08-14T12:51:44.300Z,99553.09
2022-08-14T12:54:27.052Z,99558.59
2022-08-14T12:57:04.237Z,99555.84
2022-08-14T12:59:37.279Z,99555.78
2022-08-14T13:02:25.991Z,99547.72
2022-08-14T13:04:55.951Z,99542.13
2022-08-14T13:07:24.267Z,99533.25
2022-08-14T13:10:00.165Z,99520.38
2022-08-14T13:12:32.555Z,99525.88
2022-08-14T13:15:18.211Z,99516.25
2022-08-14T13:17:52.113Z,99512.06
2022-08-14T13:20:26.564Z,99506.09
2022-08-14T13:22:56.236Z,99501.41
2022-08-14T13:25:25.926Z,99502.56
2022-08-14T13:27:55.203Z,99506.97
2022-08-14T13:30:24.966Z,99501.34
2022-08-14T13:32:53.786Z,99499.31
2022-08-14T13:35:22.682Z,99502.47
2022-08-14T13:37:52.313Z,99497.16
2022-08-14T13:40:26.529Z,99495.16
2022-08-14T13:42:56.651Z,99503.16
2022-08-14T13:45:33.629Z,99492.03
2022-08-14T13:48:27.692Z,99496.72
2022-08-14T13:50:59.276Z,99495.66
2022-08-14T13:53:33.324Z,99493.84
2022-08-14T13:56:00.514Z,99490.09
2022-08-14T13:58:30.260Z,99492.16
2022-08-14T14:01:00.837Z,99489.75
2022-08-14T14:03:30.251Z,99484.75
2022-08-14T14:05:58.920Z,99486.47
2022-08-14T14:08:45.675Z,99494.28
2022-08-14T14:11:16.059Z,99485.53
2022-08-14T14:13:45.683Z,99480.97
2022-08-14T14:16:15.535Z,99473.53
2022-08-14T14:18:56.359Z,99476.78
2022-08-14T14:21:28.744Z,99469.72
2022-08-14T14:23:56.394Z,99475.13
2022-08-14T14:26:24.717Z,99469.09
2022-08-14T14:28:56.482Z,99463.31
2022-08-14T14:31:29.579Z,99468.72
2022-08-14T14:34:00.966Z,99455.13
2022-08-14T14:36:35.565Z,99458.53
2022-08-14T14:39:05.590Z,99454.59
2022-08-14T14:41:38.554Z,99459.00
2022-08-14T14:44:16.483Z,99459.75
2022-08-14T14:46:50.782Z,99465.28
2022-08-14T14:49:31.935Z,99473.47
2022-08-14T14:52:17.172Z,99467.81
2022-08-14T14:54:50.369Z,99470.38
2022-08-14T14:57:18.587Z,99472.84
2022-08-14T14:59:50.016Z,99472.66
2022-08-14T15:02:29.234Z,99471.69
2022-08-14T15:04:56.349Z,99470.25
2022-08-14T15:07:23.205Z,99476.47
2022-08-14T15:09:50.003Z,99470.19
2022-08-14T15:12:56.571Z,99470.88
2022-08-14T15:15:08.505Z,99476.75
2022-08-14T15:17:41.668Z,99483.69
2022-08-14T15:20:30.145Z,99474.13
2022-08-14T15:23:11.856Z,99476.25
2022-08-14T15:25:41.032Z,99480.28
2022-08-14T15:28:11.671Z,99475.66
2022-08-14T15:30:44.232Z,99479.13
2022-08-14T15:33:14.258Z,99473.09
2022-08-14T15:35:44.957Z,99469.09
2022-08-14T15:38:17.538Z,99476.34
2022-08-14T15:40:44.633Z,99472.59
2022-08-14T15:43:23.239Z,99472.78
2022-08-14T15:45:54.769Z,99476.53
2022-08-14T15:48:23.320Z,99466.06
2022-08-14T15:50:50.951Z,99480.06
2022-08-14T15:53:18.325Z,99470.59
2022-08-14T15:55:46.588Z,99473.59
2022-08-14T15:58:14.714Z,99470.78
2022-08-14T16:00:59.985Z,99470.28
2022-08-14T16:03:37.178Z,99472.00
2022-08-14T16:06:15.718Z,99465.44
2022-08-14T16:08:46.433Z,99463.78
2022-08-14T16:11:17.097Z,99467.72
2022-08-14T16:13:45.211Z,99471.38
2022-08-14T16:16:47.587Z,99467.34
2022-08-14T16:19:10.045Z,99470.38
2022-08-14T16:21:40.316Z,99462.22
2022-08-14T16:24:27.076Z,99465.31
2022-08-14T16:27:00.664Z,99475.81
2022-08-14T16:29:30.166Z,99466.00
2022-08-14T16:31:59.052Z,99466.00
2022-08-14T16:34:44.118Z,99462.72
2022-08-14T16:37:13.253Z,99459.97
2022-08-14T16:39:41.899Z,99450.41
2022-08-14T16:42:38.360Z,99451.25
2022-08-14T16:44:58.224Z,99446.84
2022-08-14T16:47:25.326Z,99448.75
2022-08-14T16:50:04.311Z,99441.66
2022-08-14T16:52:44.216Z,99451.47
2022-08-14T16:55:13.895Z,99445.22
2022-08-14T16:57:54.316Z,99437.59
2022-08-14T17:00:44.274Z,99425.06
2022-08-14T17:03:18.186Z,99426.72
2022-08-14T17:05:46.849Z,99423.28
2022-08-14T17:08:32.995Z,99422.44
2022-08-14T17:11:10.139Z,99416.44
2022-08-14T17:13:59.591Z,99424.66
2022-08-14T17:16:37.401Z,99415.94
2022-08-14T17:19:05.849Z,99419.75
2022-08-14T17:21:41.770Z,99418.94
2022-08-14T17:24:56.449Z,99434.47
2022-08-14T17:27:03.871Z,99435.81
2022-08-14T17:29:34.943Z,99437.72
2022-08-14T17:32:27.986Z,99430.59
2022-08-14T17:37:46.199Z,99427.25
2022-08-14T17:40:19.530Z,99431.28
2022-08-14T17:42:51.829Z,99434.53
2022-08-14T17:45:43.686Z,99439.66
2022-08-14T17:49:10.877Z,99445.28
2022-08-14T17:51:23.238Z,99440.38
2022-08-14T17:53:53.363Z,99441.16
2022-08-14T17:56:20.954Z,99443.59
2022-08-14T17:58:49.349Z,99434.53
2022-08-14T18:01:17.439Z,99438.06
2022-08-14T18:03:53.603Z,99438.19
2022-08-14T18:06:39.552Z,99432.06
2022-08-14T18:09:26.087Z,99442.03
2022-08-14T18:11:57.925Z,99445.97
2022-08-14T18:14:32.620Z,99452.44
2022-08-14T18:17:13.676Z,99448.66
2022-08-14T18:19:45.085Z,99435.84
2022-08-14T18:22:24.058Z,99427.31
2022-08-14T18:24:59.398Z,99429.44
2022-08-14T18:27:43.872Z,99445.84
2022-08-14T18:30:33.282Z,99455.06
2022-08-14T18:32:59.699Z,99454.91
2022-08-14T18:35:59.080Z,99455.63
2022-08-14T18:38:46.107Z,99463.78
2022-08-14T18:41:36.224Z,99447.78
2022-08-14T18:44:10.634Z,99454.78
2022-08-14T18:47:10.024Z,99457.84
2022-08-14T18:50:26.406Z,99448.53
2022-08-14T18:52:53.346Z,99438.75
2022-08-14T18:55:20.958Z,99430.34
2022-08-14T18:58:27.548Z,99412.63
2022-08-14T19:00:56.245Z,99400.03
2022-08-14T19:03:37.125Z,99394.94
2022-08-14T19:06:07.005Z,99397.03
2022-08-14T19:08:47.036Z,99401.34
2022-08-14T19:11:32.414Z,99409.63
2022-08-14T19:14:04.714Z,99415.84
2022-08-14T19:16:34.865Z,99407.97
2022-08-14T19:19:04.361Z,99413.28
2022-08-14T19:21:43.553Z,99419.25
2022-08-14T19:24:27.494Z,99422.19
2022-08-14T19:27:19.463Z,99420.44
2022-08-14T19:29:51.068Z,99418.28
2022-08-14T19:32:36.491Z,99421.00
2022-08-14T19:35:17.004Z,99410.00
2022-08-14T19:37:55.202Z,99411.47
2022-08-14T19:40:34.560Z,99412.09
2022-08-14T19:43:06.525Z,99410.47
2022-08-14T19:45:37.048Z,99413.75
2022-08-14T19:48:10.529Z,99397.38
2022-08-14T19:50:41.318Z,99385.06
2022-08-14T19:53:17.304Z,99380.47
2022-08-14T19:55:54.929Z,99381.16
2022-08-14T19:58:28.004Z,99383.03
2022-08-14T20:00:57.281Z,99376.59
2022-08-14T20:03:24.871Z,99384.22
2022-08-14T20:06:05.331Z,99388.72
2022-08-14T20:10:58.500Z,99384.22
2022-08-14T20:11:58.591Z,99379.31
2022-08-14T20:14:29.639Z,99386.81
2022-08-14T20:17:05.527Z,99385.53
2022-08-14T20:19:38.044Z,99390.03
2022-08-14T20:22:36.225Z,99390.72
2022-08-14T20:25:11.644Z,99388.72
2022-08-14T20:27:41.055Z,99385.44
2022-08-14T20:30:33.567Z,99388.84
2022-08-14T20:33:07.687Z,99390.00
2022-08-14T20:35:43.665Z,99394.13
2022-08-14T20:38:31.189Z,99389.03
2022-08-14T20:41:09.486Z,99373.75
2022-08-14T20:43:59.417Z,99371.44
2022-08-14T20:46:31.858Z,99374.59
2022-08-14T20:48:59.621Z,99371.91
2022-08-14T20:51:43.385Z,99377.03
2022-08-14T20:54:21.563Z,99384.69
2022-08-14T20:57:43.644Z,99372.94
2022-08-14T21:00:12.041Z,99372.72
2022-08-14T21:02:50.012Z,99374.22
2022-08-14T21:05:22.515Z,99383.63
2022-08-14T21:08:07.877Z,99382.69
2022-08-14T21:10:44.106Z,99377.41
2022-08-14T21:14:09.074Z,99385.41
2022-08-14T21:16:03.058Z,99385.53
2022-08-14T21:18:35.172Z,99385.75
2022-08-14T21:21:18.076Z,99391.16
2022-08-14T21:23:54.962Z,99395.38
2022-08-14T21:26:51.201Z,99394.53
2022-08-14T21:29:11.387Z,99399.72
2022-08-14T21:31:38.965Z,99409.94
2022-08-14T21:34:27.528Z,99412.75
2022-08-14T21:36:54.632Z,99412.53
2022-08-14T21:39:24.347Z,99410.75
2022-08-14T21:41:58.421Z,99410.75
2022-08-14T21:44:42.600Z,99408.06
2022-08-14T21:47:10.143Z,99402.53
2022-08-14T21:49:39.096Z,99388.81
2022-08-14T21:52:51.904Z,99382.81
2022-08-14T21:55:01.922Z,99381.84
2022-08-14T21:58:46.371Z,99375.41
2022-08-14T22:00:36.695Z,99371.41
2022-08-14T22:03:09.829Z,99365.53
2022-08-14T22:05:39.096Z,99363.63
2022-08-14T22:08:06.692Z,99357.41
2022-08-14T22:10:35.014Z,99362.59
2022-08-14T22:13:02.106Z,99362.50
2022-08-14T22:15:29.916Z,99366.94
2022-08-14T22:17:57.759Z,99360.69
2022-08-14T22:20:28.768Z,99351.66
2022-08-14T22:22:56.912Z,99353.97
2022-08-14T22:25:33.330Z,99347.88
2022-08-14T22:28:01.610Z,99355.38
2022-08-14T22:30:28.145Z,99348.75
2022-08-14T22:32:56.825Z,99344.56
2022-08-14T22:35:25.568Z,99343.81
2022-08-14T22:38:36.549Z,99343.34
2022-08-14T22:41:14.885Z,99350.41
2022-08-14T22:43:27.568Z,99349.81
2022-08-14T22:45:58.272Z,99345.31
2022-08-14T22:48:29.696Z,99345.13
2022-08-14T22:50:56.336Z,99344.50
2022-08-14T22:53:24.072Z,99342.19
2022-08-14T22:55:56.686Z,99344.03
2022-08-14T22:58:31.440Z,99345.94
2022-08-14T23:01:01.041Z,99351.31
2022-08-14T23:03:27.693Z,99349.22
2022-08-14T23:05:55.531Z,99353.56
2022-08-14T23:08:59.739Z,99344.97
2022-08-14T23:11:10.335Z,99357.88
2022-08-14T23:13:39.171Z,99352.25
2022-08-14T23:16:06.887Z,99351.19
2022-08-14T23:18:34.561Z,99353.16
2022-08-14T23:21:01.577Z,99356.47
2022-08-14T23:23:28.049Z,99358.81
2022-08-14T23:26:00.265Z,99356.94
2022-08-14T23:28:58.104Z,99358.44
2022-08-14T23:31:34.346Z,99359.03
2022-08-14T23:34:06.752Z,99351.53
2022-08-14T23:36:37.853Z,99368.69
2022-08-14T23:39:21.061Z,99359.38
2022-08-14T23:41:52.698Z,99359.38
2022-08-14T23:44:22.129Z,99354.81
2022-08-14T23:46:49.535Z,99358.88
2022-08-14T23:49:21.259Z,99359.94
2022-08-14T23:52:49.444Z,99352.56
2022-08-14T23:54:49.379Z,99346.97
2022-08-14T23:57:19.339Z,99340.75
2022-08-14T23:59:54.696Z,99341.78
